createdAt,value
2023-03-29T00:00:14.106Z,98712.69
2023-03-29T00:02:49.123Z,98696.84
2023-03-29T00:05:25.339Z,98694.81
2023-03-29T00:08:02.232Z,98692.88
2023-03-29T00:10:34.911Z,98699.47
2023-03-29T00:13:07.173Z,98698.16
2023-03-29T00:15:39.068Z,98691.59
2023-03-29T00:18:11.770Z,98681.16
2023-03-29T00:20:43.677Z,98684.44
2023-03-29T00:23:16.206Z,98692.31
2023-03-29T00:25:48.429Z,98694.72
2023-03-29T00:28:21.027Z,98675.75
2023-03-29T00:30:53.927Z,98690.94
2023-03-29T00:33:26.254Z,98687.66
2023-03-29T00:35:58.651Z,98674.03
2023-03-29T00:38:32.203Z,98684.56
2023-03-29T00:41:06.823Z,98680.78
2023-03-29T00:44:01.896Z,98691.19
2023-03-29T00:46:34.935Z,98685.78
2023-03-29T00:49:13.089Z,98692.91
2023-03-29T00:51:45.910Z,98696.38
2023-03-29T00:54:19.981Z,98652.97
2023-03-29T00:56:52.495Z,98656.84
2023-03-29T00:59:28.899Z,98674.19
2023-03-29T01:02:05.288Z,98664.94
2023-03-29T01:04:50.112Z,98652.56
2023-03-29T01:08:21.596Z,98656.69
2023-03-29T01:11:30.339Z,98634.53
2023-03-29T01:14:10.077Z,98630.66
2023-03-29T01:16:43.012Z,98639.25
2023-03-29T01:19:21.815Z,98632.63
2023-03-29T01:22:42.638Z,98638.41
2023-03-29T01:25:41.758Z,98637.63
2023-03-29T01:28:22.134Z,98629.78
2023-03-29T01:31:07.034Z,98641.59
2023-03-29T01:33:46.573Z,98639.72
2023-03-29T01:36:30.177Z,98638.59
2023-03-29T01:39:05.347Z,98640.38
2023-03-29T01:42:17.166Z,98630.13
2023-03-29T01:45:24.323Z,98624.97
2023-03-29T01:48:16.782Z,98622.44
2023-03-29T01:51:04.800Z,98628.47
2023-03-29T01:54:10.757Z,98630.94
2023-03-29T01:56:45.911Z,98625.13
2023-03-29T01:59:28.603Z,98614.00
2023-03-29T02:02:06.355Z,98614.03
2023-03-29T02:04:50.430Z,98623.22
2023-03-29T02:07:30.449Z,98624.59
2023-03-29T02:10:07.248Z,98613.50
2023-03-29T02:12:39.361Z,98612.44
2023-03-29T02:18:09.263Z,98599.50
2023-03-29T02:20:47.742Z,98597.56
2023-03-29T02:23:34.433Z,98596.25
2023-03-29T02:26:09.321Z,98606.81
2023-03-29T02:28:42.300Z,98601.53
2023-03-29T02:31:27.257Z,98594.91
2023-03-29T02:34:27.251Z,98593.59
2023-03-29T02:37:04.757Z,98589.63
2023-03-29T02:39:38.569Z,98594.25
2023-03-29T02:42:11.730Z,98587.66
2023-03-29T02:44:45.568Z,98589.66
2023-03-29T02:47:45.840Z,98592.28
2023-03-29T02:50:19.951Z,98581.03
2023-03-29T02:52:59.883Z,98586.31
2023-03-29T02:55:34.798Z,98581.06
2023-03-29T02:58:08.684Z,98575.75
2023-03-29T03:00:49.042Z,98579.72
2023-03-29T03:03:21.475Z,98573.09
2023-03-29T03:05:54.686Z,98575.09
2023-03-29T03:11:20.230Z,98571.13
2023-03-29T03:13:53.721Z,98571.13
2023-03-29T03:16:26.255Z,98570.44
2023-03-29T03:21:52.120Z,98560.53
2023-03-29T03:24:28.422Z,98570.41
2023-03-29T03:27:01.564Z,98561.16
2023-03-29T03:29:35.755Z,98571.75
2023-03-29T03:32:22.818Z,98574.38
2023-03-29T03:35:14.040Z,98571.09
2023-03-29T03:37:46.592Z,98559.19
2023-03-29T03:40:18.568Z,98566.44
2023-03-29T03:42:51.521Z,98566.44
2023-03-29T03:45:24.446Z,98566.44
2023-03-29T03:48:01.121Z,98564.44
2023-03-29T03:51:00.350Z,98565.13
2023-03-29T03:53:38.431Z,98567.09
2023-03-29T03:56:20.446Z,98557.84
2023-03-29T03:59:11.385Z,98551.22
2023-03-29T04:01:54.972Z,98563.81
2023-03-29T04:04:49.478Z,98560.47
2023-03-29T04:07:25.308Z,98563.13
2023-03-29T04:10:00.813Z,98547.28
2023-03-29T04:12:51.125Z,98562.47
2023-03-29T04:15:24.222Z,98563.78
2023-03-29T04:18:07.198Z,98563.13
2023-03-29T04:20:46.332Z,98556.53
2023-03-29T04:23:22.619Z,98562.47
2023-03-29T04:25:57.020Z,98556.50
2023-03-29T04:28:50.810Z,98564.44
2023-03-29T04:31:28.227Z,98562.50
2023-03-29T04:34:27.402Z,98556.47
2023-03-29T04:37:01.650Z,98532.00
2023-03-29T04:39:34.290Z,98547.94
2023-03-29T04:42:11.883Z,98542.59
2023-03-29T04:44:44.831Z,98548.53
2023-03-29T04:47:21.160Z,98551.84
2023-03-29T04:49:58.376Z,98537.97
2023-03-29T04:52:42.040Z,98560.44
2023-03-29T04:55:15.402Z,98543.25
2023-03-29T04:57:59.543Z,98546.53
2023-03-29T05:00:44.298Z,98554.47
2023-03-29T05:03:31.149Z,98557.78
2023-03-29T05:06:15.709Z,98553.16
2023-03-29T05:08:48.298Z,98555.16
2023-03-29T05:11:27.622Z,98567.06
2023-03-29T05:14:03.647Z,98564.41
2023-03-29T05:16:40.941Z,98570.34
2023-03-29T05:19:15.205Z,98571.69
2023-03-29T05:21:53.020Z,98569.72
2023-03-29T05:24:47.002Z,98572.34
2023-03-29T05:27:22.922Z,98582.94
2023-03-29T05:30:07.226Z,98575.00
2023-03-29T05:32:50.057Z,98579.66
2023-03-29T05:35:29.454Z,98566.44
2023-03-29T05:38:04.491Z,98555.19
2023-03-29T05:40:40.712Z,98559.81
2023-03-29T05:43:27.362Z,98559.78
2023-03-29T05:46:02.634Z,98564.41
2023-03-29T05:48:36.313Z,98565.06
2023-03-29T05:51:10.495Z,98557.78
2023-03-29T05:53:45.944Z,98563.06
2023-03-29T05:56:19.854Z,98568.31
2023-03-29T05:58:56.863Z,98561.03
2023-03-29T06:01:31.919Z,98564.97
2023-03-29T06:04:09.025Z,98571.63
2023-03-29T06:09:21.050Z,98582.84
2023-03-29T06:12:08.433Z,98563.59
2023-03-29T06:14:45.588Z,98567.56
2023-03-29T06:17:36.889Z,98558.16
2023-03-29T06:20:12.809Z,98552.94
2023-03-29T06:22:50.385Z,98562.88
2023-03-29T06:25:25.371Z,98576.09
2023-03-29T06:30:56.336Z,98572.84
2023-03-29T06:33:35.652Z,98574.13
2023-03-29T06:36:16.146Z,98570.81
2023-03-29T06:38:50.496Z,98570.81
2023-03-29T06:41:39.394Z,98574.06
2023-03-29T06:44:12.780Z,98578.72
2023-03-29T06:46:58.614Z,98585.34
2023-03-29T06:49:31.707Z,98587.28
2023-03-29T06:52:16.909Z,98582.66
2023-03-29T06:54:51.586Z,98582.66
2023-03-29T06:57:24.227Z,98580.63
2023-03-29T06:59:57.945Z,98578.56
2023-03-29T07:02:47.744Z,98589.09
2023-03-29T07:05:21.928Z,98595.69
2023-03-29T07:07:59.066Z,98587.72
2023-03-29T07:11:02.594Z,98595.69
2023-03-29T07:13:53.985Z,98607.50
2023-03-29T07:19:34.048Z,98608.91
2023-03-29T07:22:14.676Z,98606.88
2023-03-29T07:25:05.845Z,98614.22
2023-03-29T07:27:42.788Z,98608.81
2023-03-29T07:30:20.347Z,98608.13
2023-03-29T07:32:53.211Z,98617.41
2023-03-29T07:35:49.426Z,98617.44
2023-03-29T07:38:21.741Z,98625.34
2023-03-29T07:41:08.491Z,98634.53
2023-03-29T07:43:46.827Z,98637.78
2023-03-29T07:46:23.194Z,98639.09
2023-03-29T07:48:57.374Z,98639.00
2023-03-29T07:51:29.978Z,98635.66
2023-03-29T07:54:10.887Z,98644.25
2023-03-29T07:56:43.164Z,98640.91
2023-03-29T07:59:17.536Z,98635.63
2023-03-29T08:01:55.282Z,98640.81
2023-03-29T08:04:36.804Z,98634.19
2023-03-29T08:07:21.916Z,98625.38
2023-03-29T08:10:23.512Z,98636.56
2023-03-29T08:12:59.089Z,98627.94
2023-03-29T08:15:46.573Z,98640.56
2023-03-29T08:18:29.054Z,98640.13
2023-03-29T08:21:02.443Z,98640.72
2023-03-29T08:23:34.456Z,98627.44
2023-03-29T08:26:24.502Z,98635.50
2023-03-29T08:28:57.496Z,98623.97
2023-03-29T08:31:33.594Z,98630.38
2023-03-29T08:34:07.043Z,98620.94
2023-03-29T08:36:40.181Z,98626.69
2023-03-29T08:39:21.747Z,98618.91
2023-03-29T08:42:16.604Z,98619.25
2023-03-29T08:48:15.314Z,98618.09
2023-03-29T08:51:03.113Z,98617.50
2023-03-29T08:53:45.088Z,98618.72
2023-03-29T08:56:41.323Z,98610.75
2023-03-29T08:59:32.746Z,98624.13
2023-03-29T09:02:17.766Z,98620.09
2023-03-29T09:05:13.463Z,98614.84
2023-03-29T09:07:49.180Z,98614.78
2023-03-29T09:10:33.856Z,98606.22
2023-03-29T09:13:38.598Z,98615.44
2023-03-29T09:16:23.049Z,98611.41
2023-03-29T09:19:19.006Z,98614.06
2023-03-29T09:22:16.967Z,98614.59
2023-03-29T09:25:53.387Z,98615.28
2023-03-29T09:28:43.887Z,98616.59
2023-03-29T09:31:31.524Z,98596.69
2023-03-29T09:34:21.326Z,98604.47
2023-03-29T09:37:33.335Z,98613.66
2023-03-29T09:40:28.296Z,98606.91
2023-03-29T09:43:37.926Z,98603.53
2023-03-29T09:46:34.350Z,98599.50
2023-03-29T09:49:17.210Z,98607.34
2023-03-29T09:51:51.951Z,98614.50
2023-03-29T09:54:26.844Z,98599.47
2023-03-29T09:57:20.171Z,98608.06
2023-03-29T09:59:54.771Z,98614.00
2023-03-29T10:02:31.811Z,98612.00
2023-03-29T10:05:09.469Z,98604.00
2023-03-29T10:07:47.141Z,98596.75
2023-03-29T10:10:35.263Z,98596.16
2023-03-29T10:13:33.050Z,98582.78
2023-03-29T10:16:09.241Z,98601.44
2023-03-29T10:18:44.095Z,98585.50
2023-03-29T10:21:22.166Z,98587.69
2023-03-29T10:23:59.725Z,98592.19
2023-03-29T10:26:33.774Z,98588.28
2023-03-29T10:29:08.963Z,98588.88
2023-03-29T10:31:42.477Z,98596.72
2023-03-29T10:37:14.025Z,98590.22
2023-03-29T10:39:51.809Z,98590.81
2023-03-29T10:42:26.038Z,98586.72
2023-03-29T10:47:57.299Z,98581.66
2023-03-29T10:50:37.853Z,98580.94
2023-03-29T10:53:32.869Z,98580.09
2023-03-29T10:56:39.643Z,98575.78
2023-03-29T10:59:43.970Z,98571.03
2023-03-29T11:02:17.654Z,98562.31
2023-03-29T11:05:15.688Z,98565.41
2023-03-29T11:11:40.999Z,98563.09
2023-03-29T11:14:35.528Z,98555.97
2023-03-29T11:17:41.879Z,98556.38
2023-03-29T11:20:33.349Z,98547.44
2023-03-29T11:23:53.593Z,98536.59
2023-03-29T11:26:43.334Z,98542.13
2023-03-29T11:29:36.563Z,98544.22
2023-03-29T11:32:11.314Z,98548.00
2023-03-29T11:35:14.758Z,98558.59
2023-03-29T11:38:00.414Z,98558.47
2023-03-29T11:40:50.896Z,98559.47
2023-03-29T11:43:35.892Z,98553.47
2023-03-29T11:46:26.361Z,98545.91
2023-03-29T11:49:39.087Z,98556.31
2023-03-29T11:52:41.769Z,98559.34
2023-03-29T11:55:27.496Z,98550.78
2023-03-29T11:58:38.760Z,98540.94
2023-03-29T12:01:16.422Z,98544.44
2023-03-29T12:04:06.187Z,98545.97
2023-03-29T12:06:50.553Z,98534.28
2023-03-29T12:09:36.928Z,98525.53
2023-03-29T12:12:27.038Z,98519.16
2023-03-29T12:15:23.421Z,98515.59
2023-03-29T12:18:11.389Z,98500.88
2023-03-29T12:20:47.083Z,98507.66
2023-03-29T12:23:20.907Z,98501.50
2023-03-29T12:26:03.575Z,98502.22
2023-03-29T12:29:13.278Z,98504.03
2023-03-29T12:32:14.847Z,98500.94
2023-03-29T12:35:25.055Z,98493.28
2023-03-29T12:38:31.164Z,98494.38
2023-03-29T12:41:26.329Z,98490.44
2023-03-29T12:44:21.271Z,98487.06
2023-03-29T12:47:02.903Z,98497.81
2023-03-29T12:49:38.925Z,98483.94
2023-03-29T12:52:24.685Z,98487.94
2023-03-29T12:55:01.401Z,98479.78
2023-03-29T12:57:44.962Z,98489.16
2023-03-29T13:00:28.229Z,98492.69
2023-03-29T13:03:04.774Z,98492.19
2023-03-29T13:05:38.613Z,98476.16
2023-03-29T13:08:34.330Z,98477.25
2023-03-29T13:11:12.458Z,98468.59
2023-03-29T13:13:44.666Z,98469.47
2023-03-29T13:16:22.902Z,98469.72
2023-03-29T13:19:01.781Z,98472.78
2023-03-29T13:22:11.907Z,98468.50
2023-03-29T13:25:14.950Z,98474.91
2023-03-29T13:28:37.891Z,98476.63
2023-03-29T13:31:50.341Z,98470.97
2023-03-29T13:34:38.370Z,98465.91
2023-03-29T13:37:30.205Z,98468.41
2023-03-29T13:40:05.366Z,98462.03
2023-03-29T13:42:42.169Z,98460.78
2023-03-29T13:45:27.857Z,98466.44
2023-03-29T13:48:54.199Z,98464.75
2023-03-29T13:51:39.648Z,98464.41
2023-03-29T13:54:44.060Z,98462.81
2023-03-29T13:57:39.080Z,98461.09
2023-03-29T14:00:21.676Z,98458.00
2023-03-29T14:03:02.202Z,98451.47
2023-03-29T14:05:47.098Z,98451.47
2023-03-29T14:08:38.193Z,98440.56
2023-03-29T14:11:23.056Z,98441.75
2023-03-29T14:14:05.648Z,98435.56
2023-03-29T14:16:40.272Z,98426.09
2023-03-29T14:19:19.337Z,98425.69
2023-03-29T14:21:53.196Z,98418.56
2023-03-29T14:24:38.761Z,98423.19
2023-03-29T14:27:12.677Z,98427.84
2023-03-29T14:29:51.619Z,98418.66
2023-03-29T14:32:31.749Z,98427.72
2023-03-29T14:35:04.899Z,98421.59
2023-03-29T14:37:56.324Z,98426.22
2023-03-29T14:40:31.184Z,98421.00
2023-03-29T14:43:08.387Z,98420.94
2023-03-29T14:45:40.414Z,98418.22
2023-03-29T14:48:15.784Z,98424.19
2023-03-29T14:53:42.520Z,98411.13
2023-03-29T14:56:18.591Z,98406.44
2023-03-29T14:58:53.071Z,98417.69
2023-03-29T15:01:26.831Z,98406.31
2023-03-29T15:04:12.689Z,98394.59
2023-03-29T15:06:47.362Z,98406.59
2023-03-29T15:09:34.149Z,98422.94
2023-03-29T15:12:07.397Z,98414.78
2023-03-29T15:14:39.419Z,98415.44
2023-03-29T15:17:50.422Z,98405.50
2023-03-29T15:20:28.612Z,98417.16
2023-03-29T15:23:09.036Z,98411.44
2023-03-29T15:25:57.131Z,98412.50
2023-03-29T15:28:36.060Z,98408.59
2023-03-29T15:31:15.748Z,98400.75
2023-03-29T15:33:47.879Z,98405.50
2023-03-29T15:36:21.023Z,98408.59
2023-03-29T15:38:52.944Z,98398.88
2023-03-29T15:41:27.854Z,98405.66
2023-03-29T15:44:00.904Z,98417.28
2023-03-29T15:46:33.246Z,98409.41
2023-03-29T15:49:27.679Z,98395.97
2023-03-29T15:51:59.651Z,98395.91
2023-03-29T15:54:34.089Z,98392.38
2023-03-29T15:57:13.514Z,98400.16
2023-03-29T15:59:46.635Z,98404.28
2023-03-29T16:02:24.629Z,98400.97
2023-03-29T16:07:50.175Z,98400.63
2023-03-29T16:10:22.393Z,98398.09
2023-03-29T16:12:55.719Z,98409.56
2023-03-29T16:15:29.076Z,98403.78
2023-03-29T16:18:01.630Z,98397.88
2023-03-29T16:20:33.727Z,98395.19
2023-03-29T16:23:09.915Z,98391.28
2023-03-29T16:25:43.063Z,98394.59
2023-03-29T16:28:14.935Z,98395.25
2023-03-29T16:30:47.888Z,98393.81
2023-03-29T16:33:19.909Z,98385.94
2023-03-29T16:35:52.665Z,98392.44
2023-03-29T16:38:25.853Z,98391.78
2023-03-29T16:40:58.994Z,98387.38
2023-03-29T16:43:31.589Z,98381.44
2023-03-29T16:46:07.263Z,98367.97
2023-03-29T16:48:39.371Z,98343.81
2023-03-29T16:51:15.623Z,98342.03
2023-03-29T16:53:48.755Z,98340.75
2023-03-29T16:56:21.426Z,98326.06
2023-03-29T16:58:53.836Z,98331.97
2023-03-29T17:01:25.772Z,98314.03
2023-03-29T17:03:58.614Z,98314.44
2023-03-29T17:06:32.470Z,98336.97
2023-03-29T17:09:05.434Z,98343.03
2023-03-29T17:14:30.882Z,98359.00
2023-03-29T17:17:24.730Z,98356.88
2023-03-29T17:19:57.286Z,98353.16
2023-03-29T17:22:30.019Z,98354.56
2023-03-29T17:25:03.806Z,98362.97
2023-03-29T17:27:40.751Z,98359.84
2023-03-29T17:30:13.280Z,98360.72
2023-03-29T17:32:46.093Z,98375.81
2023-03-29T17:35:18.298Z,98392.34
2023-03-29T17:37:51.100Z,98377.19
2023-03-29T17:40:23.544Z,98376.41
2023-03-29T17:42:56.488Z,98371.50
2023-03-29T17:45:28.632Z,98367.09
2023-03-29T17:48:04.101Z,98365.78
2023-03-29T17:50:37.555Z,98387.75
2023-03-29T17:53:10.859Z,98384.53
2023-03-29T17:55:43.099Z,98393.94
2023-03-29T17:58:15.671Z,98391.91
2023-03-29T18:00:47.978Z,98386.59
2023-03-29T18:03:20.975Z,98363.78
2023-03-29T18:05:54.157Z,98359.34
2023-03-29T18:08:26.855Z,98313.00
2023-03-29T18:11:11.540Z,98309.81
2023-03-29T18:13:45.157Z,98314.41
2023-03-29T18:16:17.353Z,98323.25
2023-03-29T18:18:50.921Z,98326.09
2023-03-29T18:21:25.955Z,98313.81
2023-03-29T18:23:58.772Z,98294.53
2023-03-29T18:26:30.590Z,98319.59
2023-03-29T18:29:03.722Z,98305.41
2023-03-29T18:31:35.991Z,98303.19
2023-03-29T18:34:08.804Z,98298.97
2023-03-29T18:36:40.665Z,98298.97
2023-03-29T18:39:13.932Z,98293.00
2023-03-29T18:41:46.270Z,98301.13
2023-03-29T18:44:19.062Z,98297.94
2023-03-29T18:46:50.923Z,98297.56
2023-03-29T18:49:26.046Z,98298.44
2023-03-29T18:51:58.461Z,98300.59
2023-03-29T18:54:31.398Z,98314.84
2023-03-29T18:57:03.802Z,98309.38
2023-03-29T18:59:38.775Z,98304.81
2023-03-29T19:02:10.901Z,98303.22
2023-03-29T19:04:44.020Z,98308.03
2023-03-29T19:07:17.759Z,98305.56
2023-03-29T19:09:50.520Z,98301.19
2023-03-29T19:12:22.437Z,98304.50
2023-03-29T19:14:56.032Z,98306.47
2023-03-29T19:17:28.177Z,98309.50
2023-03-29T19:20:01.217Z,98300.53
2023-03-29T19:22:33.901Z,98299.69
2023-03-29T19:25:07.844Z,98293.38
2023-03-29T19:27:40.078Z,98293.63
2023-03-29T19:30:13.614Z,98293.03
2023-03-29T19:32:45.660Z,98281.53
2023-03-29T19:35:19.201Z,98281.97
2023-03-29T19:37:51.125Z,98275.09
2023-03-29T19:40:24.258Z,98273.81
2023-03-29T19:42:56.075Z,98288.41
2023-03-29T19:45:29.065Z,98289.38
2023-03-29T19:48:03.456Z,98291.25
2023-03-29T19:50:40.901Z,98294.31
2023-03-29T19:53:13.378Z,98293.59
2023-03-29T19:55:46.412Z,98292.78
2023-03-29T19:58:18.655Z,98289.84
2023-03-29T20:00:53.581Z,98283.19
2023-03-29T20:03:28.192Z,98276.47
2023-03-29T20:06:01.638Z,98267.31
2023-03-29T20:08:36.128Z,98271.53
2023-03-29T20:11:10.641Z,98284.00
2023-03-29T20:13:44.942Z,98262.75
2023-03-29T20:16:19.015Z,98260.44
2023-03-29T20:18:53.815Z,98254.25
2023-03-29T20:21:26.566Z,98259.38
2023-03-29T20:23:58.416Z,98240.81
2023-03-29T20:26:31.598Z,98254.91
2023-03-29T20:29:03.817Z,98243.28
2023-03-29T20:31:36.530Z,98250.22
2023-03-29T20:34:08.393Z,98248.91
2023-03-29T20:36:41.219Z,98242.41
2023-03-29T20:39:16.956Z,98248.19
2023-03-29T20:41:52.001Z,98241.56
2023-03-29T20:44:28.296Z,98242.44
2023-03-29T20:47:04.532Z,98237.59
2023-03-29T20:49:37.580Z,98240.75
2023-03-29T20:52:15.805Z,98242.84
2023-03-29T20:54:48.828Z,98232.81
2023-03-29T20:57:21.840Z,98236.03
2023-03-29T20:59:53.731Z,98237.50
2023-03-29T21:02:26.687Z,98243.13
2023-03-29T21:05:00.165Z,98238.66
2023-03-29T21:07:32.951Z,98240.22
2023-03-29T21:10:06.814Z,98233.41
2023-03-29T21:12:40.390Z,98224.78
2023-03-29T21:15:13.461Z,98219.03
2023-03-29T21:17:46.351Z,98214.41
2023-03-29T21:20:18.255Z,98212.63
2023-03-29T21:22:51.429Z,98203.69
2023-03-29T21:25:23.279Z,98203.63
2023-03-29T21:27:55.972Z,98203.00
2023-03-29T21:30:30.042Z,98198.34
2023-03-29T21:33:04.194Z,98187.09
2023-03-29T21:35:36.352Z,98185.22
2023-03-29T21:38:09.091Z,98181.16
2023-03-29T21:40:40.948Z,98188.63
2023-03-29T21:43:13.722Z,98186.75
2023-03-29T21:45:50.351Z,98192.28
2023-03-29T21:48:23.045Z,98185.78
2023-03-29T21:50:54.969Z,98180.13
2023-03-29T21:53:27.745Z,98185.56
2023-03-29T21:55:59.606Z,98175.34
2023-03-29T21:58:32.513Z,98177.69
2023-03-29T22:01:07.070Z,98180.78
2023-03-29T22:03:39.928Z,98173.41
2023-03-29T22:06:14.214Z,98169.28
2023-03-29T22:08:49.838Z,98167.00
2023-03-29T22:11:23.145Z,98170.50
2023-03-29T22:13:55.996Z,98182.00
2023-03-29T22:16:28.350Z,98173.72
2023-03-29T22:19:01.082Z,98173.56
2023-03-29T22:21:32.971Z,98166.78
2023-03-29T22:24:06.496Z,98167.09
2023-03-29T22:26:38.366Z,98161.41
2023-03-29T22:29:10.890Z,98164.34
2023-03-29T22:31:42.885Z,98167.56
2023-03-29T22:34:15.759Z,98162.22
2023-03-29T22:36:47.598Z,98145.63
2023-03-29T22:39:20.331Z,98139.97
2023-03-29T22:41:52.313Z,98141.69
2023-03-29T22:44:25.008Z,98137.81
2023-03-29T22:46:57.280Z,98144.94
2023-03-29T22:49:30.060Z,98139.34
2023-03-29T22:52:02.353Z,98131.06
2023-03-29T22:54:35.068Z,98138.06
2023-03-29T22:57:07.125Z,98137.38
2023-03-29T22:59:39.876Z,98136.03
2023-03-29T23:02:11.848Z,98127.25
2023-03-29T23:04:45.797Z,98119.78
2023-03-29T23:07:18.114Z,98110.06
2023-03-29T23:09:51.073Z,98102.41
2023-03-29T23:12:24.149Z,98099.75
2023-03-29T23:14:57.110Z,98083.91
2023-03-29T23:17:29.883Z,98088.13
2023-03-29T23:20:06.241Z,98088.69
2023-03-29T23:22:39.617Z,98100.75
2023-03-29T23:25:13.624Z,98093.69
2023-03-29T23:27:45.476Z,98085.66
2023-03-29T23:30:20.183Z,98092.38
2023-03-29T23:32:52.484Z,98094.59
2023-03-29T23:35:25.318Z,98096.44
2023-03-29T23:37:57.222Z,98097.38
2023-03-29T23:40:29.871Z,98097.38
2023-03-29T23:43:04.085Z,98094.50
2023-03-29T23:45:37.295Z,98095.50
2023-03-29T23:48:09.227Z,98086.38
2023-03-29T23:50:46.636Z,98092.19
2023-03-29T23:53:20.971Z,98103.63
2023-03-29T23:56:06.029Z,98092.66
2023-03-29T23:58:38.266Z,98097.16
